createdAt,value
2023-03-20T00:00:55.375Z,991
2023-03-20T00:03:21.441Z,991
2023-03-20T00:05:47.526Z,991.1
2023-03-20T00:08:13.614Z,991
2023-03-20T00:10:38.734Z,990.9
2023-03-20T00:13:04.869Z,990.9
2023-03-20T00:15:30.933Z,991
2023-03-20T00:17:56.995Z,990.9
2023-03-20T00:20:23.085Z,991
2023-03-20T00:22:49.169Z,990.9
2023-03-20T00:25:15.259Z,990.9
2023-03-20T00:27:41.339Z,990.9
2023-03-20T00:30:07.443Z,990.9
2023-03-20T00:32:33.545Z,990.9
2023-03-20T00:34:59.652Z,991
2023-03-20T00:37:25.744Z,991
2023-03-20T00:39:51.867Z,991
2023-03-20T00:42:16.941Z,990.9
2023-03-20T00:44:43.063Z,991
2023-03-20T00:47:09.148Z,990.9
2023-03-20T00:49:35.287Z,990.9
2023-03-20T00:52:01.336Z,991
2023-03-20T00:54:27.438Z,990.9
2023-03-20T00:56:53.525Z,991
2023-03-20T00:59:19.612Z,991.1
2023-03-20T01:01:45.714Z,991.1
2023-03-20T01:04:11.822Z,991.1
2023-03-20T01:06:37.904Z,991.1
2023-03-20T01:09:04.017Z,991
2023-03-20T01:11:30.097Z,991.1
2023-03-20T01:13:55.206Z,991.1
2023-03-20T01:16:21.301Z,991.1
2023-03-20T01:18:47.399Z,991.1
2023-03-20T01:21:13.485Z,991.1
2023-03-20T01:23:39.583Z,991.1
2023-03-20T01:26:05.670Z,991.1
2023-03-20T01:28:31.797Z,991.1
2023-03-20T01:30:57.866Z,991.1
2023-03-20T01:33:23.975Z,991.1
2023-03-20T01:35:50.062Z,991.1
2023-03-20T01:38:16.149Z,991.1
2023-03-20T01:40:42.257Z,991.1
2023-03-20T01:43:08.334Z,991.1
2023-03-20T01:45:33.467Z,991.1
2023-03-20T01:47:59.548Z,991.1
2023-03-20T01:50:25.638Z,991.1
2023-03-20T01:52:51.773Z,991.1
2023-03-20T01:55:17.846Z,991.1
2023-03-20T01:57:43.990Z,991.1
2023-03-20T02:00:09.052Z,991
2023-03-20T02:02:35.137Z,991.1
2023-03-20T02:05:01.251Z,991
2023-03-20T02:07:27.345Z,991
2023-03-20T02:09:53.438Z,991.1
2023-03-20T02:12:19.535Z,991.1
2023-03-20T02:14:45.632Z,991.2
2023-03-20T02:17:11.721Z,991.2
2023-03-20T02:19:37.808Z,991.2
2023-03-20T02:22:03.939Z,991.3
2023-03-20T02:24:30.031Z,991.3
2023-03-20T02:26:56.094Z,991.2
2023-03-20T02:29:22.191Z,991.3
2023-03-20T02:31:47.290Z,991.2
2023-03-20T02:34:13.409Z,991.3
2023-03-20T02:36:39.494Z,991.4
2023-03-20T02:39:05.588Z,991.4
2023-03-20T02:41:31.781Z,991.4
2023-03-20T02:43:57.794Z,991.3
2023-03-20T02:46:23.880Z,991.4
2023-03-20T02:48:49.980Z,991.4
2023-03-20T02:51:16.086Z,991.4
2023-03-20T02:53:42.173Z,991.4
2023-03-20T02:56:08.255Z,991.3
2023-03-20T02:58:34.395Z,991.3
2023-03-20T03:01:00.452Z,991.3
2023-03-20T03:03:25.573Z,991.3
2023-03-20T03:05:51.671Z,991.3
2023-03-20T03:08:17.753Z,991.3
2023-03-20T03:10:43.848Z,991.3
2023-03-20T03:13:09.942Z,991.4
2023-03-20T03:15:36.048Z,991.4
2023-03-20T03:18:02.133Z,991.4
2023-03-20T03:20:28.229Z,991.4
2023-03-20T03:22:54.338Z,991.4
2023-03-20T03:25:20.414Z,991.4
2023-03-20T03:27:46.598Z,991.4
2023-03-20T03:30:12.620Z,991.4
2023-03-20T03:32:38.697Z,991.5
2023-03-20T03:35:03.821Z,991.5
2023-03-20T03:37:29.960Z,991.5
2023-03-20T03:39:56.025Z,991.5
2023-03-20T03:42:22.115Z,991.5
2023-03-20T03:44:48.206Z,991.5
2023-03-20T03:47:14.288Z,991.5
2023-03-20T03:49:40.406Z,991.6
2023-03-20T03:52:06.493Z,991.6
2023-03-20T03:54:32.592Z,991.6
2023-03-20T03:56:58.680Z,991.6
2023-03-20T03:59:24.774Z,991.6
2023-03-20T04:01:50.863Z,991.7
2023-03-20T04:04:16.965Z,991.7
2023-03-20T04:06:42.089Z,991.7
2023-03-20T04:09:08.191Z,991.7
2023-03-20T04:11:34.283Z,991.8
2023-03-20T04:14:00.367Z,991.7
2023-03-20T04:16:26.438Z,991.7
2023-03-20T04:18:52.545Z,991.7
2023-03-20T04:21:18.645Z,991.8
2023-03-20T04:23:44.745Z,991.8
2023-03-20T04:26:10.855Z,991.7
2023-03-20T04:28:36.941Z,991.8
2023-03-20T04:31:03.031Z,991.8
2023-03-20T04:33:29.127Z,991.8
2023-03-20T04:35:55.215Z,991.8
2023-03-20T04:38:20.325Z,991.7
2023-03-20T04:40:46.432Z,991.8
2023-03-20T04:43:12.534Z,991.8
2023-03-20T04:45:38.613Z,991.7
2023-03-20T04:48:04.712Z,991.7
2023-03-20T04:50:30.796Z,991.7
2023-03-20T04:52:56.899Z,991.6
2023-03-20T04:55:23.005Z,991.6
2023-03-20T04:57:49.087Z,991.6
2023-03-20T05:00:15.194Z,991.6
2023-03-20T05:02:41.283Z,991.6
2023-03-20T05:05:07.365Z,991.7
2023-03-20T05:07:33.476Z,991.7
2023-03-20T05:09:59.561Z,991.8
2023-03-20T05:12:25.653Z,991.8
2023-03-20T05:14:51.750Z,991.8
2023-03-20T05:17:17.845Z,991.9
2023-03-20T05:19:43.955Z,991.9
2023-03-20T05:22:09.089Z,991.9
2023-03-20T05:24:35.180Z,991.9
2023-03-20T05:27:01.248Z,991.9
2023-03-20T05:29:27.386Z,992
2023-03-20T05:31:53.562Z,992
2023-03-20T05:34:19.588Z,992.1
2023-03-20T05:36:45.641Z,992.1
2023-03-20T05:39:11.722Z,992.1
2023-03-20T05:44:03.913Z,992.2
2023-03-20T05:46:30.015Z,992.2
2023-03-20T05:48:56.104Z,992.2
2023-03-20T05:51:22.208Z,992.1
2023-03-20T05:53:47.322Z,992.1
2023-03-20T05:56:13.630Z,992.1
2023-03-20T05:58:39.502Z,992.1
2023-03-20T06:01:05.618Z,992.2
2023-03-20T06:03:31.698Z,992.2
2023-03-20T06:05:57.799Z,992.3
2023-03-20T06:08:23.899Z,992.2
2023-03-20T06:10:49.989Z,992.3
2023-03-20T06:13:16.126Z,992.3
2023-03-20T06:15:42.174Z,992.3
2023-03-20T06:18:08.265Z,992.3
2023-03-20T06:20:34.371Z,992.3
2023-03-20T06:23:00.496Z,992.3
2023-03-20T06:25:25.574Z,992.3
2023-03-20T06:27:51.693Z,992.4
2023-03-20T06:30:17.760Z,992.3
2023-03-20T06:32:43.886Z,992.3
2023-03-20T06:35:09.952Z,992.4
2023-03-20T06:37:36.057Z,992.4
2023-03-20T06:40:02.139Z,992.4
2023-03-20T06:42:28.240Z,992.4
2023-03-20T06:44:54.330Z,992.3
2023-03-20T06:47:20.429Z,992.3
2023-03-20T06:49:46.520Z,992.2
2023-03-20T06:52:12.609Z,992.2
2023-03-20T06:54:38.714Z,992.2
2023-03-20T06:57:03.950Z,992.2
2023-03-20T06:59:29.938Z,992.2
2023-03-20T07:01:56.026Z,992.3
2023-03-20T07:04:22.124Z,992.3
2023-03-20T07:06:48.205Z,992.2
2023-03-20T07:09:14.304Z,992.3
2023-03-20T07:11:40.392Z,992.3
2023-03-20T07:14:06.513Z,992.3
2023-03-20T07:16:32.598Z,992.4
2023-03-20T07:18:58.718Z,992.3
2023-03-20T07:21:24.782Z,992.3
2023-03-20T07:23:50.896Z,992.3
2023-03-20T07:26:17.013Z,992.4
2023-03-20T07:28:42.101Z,992.5
2023-03-20T07:31:08.195Z,992.6
2023-03-20T07:33:34.286Z,992.6
2023-03-20T07:36:00.380Z,992.6
2023-03-20T07:38:26.472Z,992.6
2023-03-20T07:40:52.621Z,992.6
2023-03-20T07:43:18.684Z,992.7
2023-03-20T07:45:44.751Z,992.7
2023-03-20T07:48:10.854Z,992.7
2023-03-20T07:50:36.949Z,992.6
2023-03-20T07:53:03.060Z,992.5
2023-03-20T07:55:29.270Z,992.6
2023-03-20T07:57:55.289Z,992.5
2023-03-20T08:00:20.338Z,992.5
2023-03-20T08:02:46.450Z,992.5
2023-03-20T08:05:12.548Z,992.6
2023-03-20T08:07:38.658Z,992.5
2023-03-20T08:10:04.753Z,992.4
2023-03-20T08:12:30.870Z,992.3
2023-03-20T08:14:56.980Z,992.4
2023-03-20T08:17:23.065Z,992.5
2023-03-20T08:19:49.162Z,992.5
2023-03-20T08:22:15.243Z,992.6
2023-03-20T08:24:41.300Z,992.6
2023-03-20T08:27:07.451Z,992.6
2023-03-20T08:29:33.543Z,992.6
2023-03-20T08:31:58.608Z,992.6
2023-03-20T08:34:24.760Z,992.6
2023-03-20T08:36:50.849Z,992.6
2023-03-20T08:39:16.946Z,992.6
2023-03-20T08:41:42.975Z,992.6
2023-03-20T08:44:09.089Z,992.6
2023-03-20T08:46:35.351Z,992.5
2023-03-20T08:49:01.279Z,992.6
2023-03-20T08:51:27.471Z,992.6
2023-03-20T08:53:53.593Z,992.7
2023-03-20T08:56:19.666Z,992.7
2023-03-20T08:58:45.723Z,992.6
2023-03-20T09:01:11.740Z,992.7
2023-03-20T09:03:36.882Z,992.7
2023-03-20T09:06:02.938Z,992.7
2023-03-20T09:08:29.161Z,992.7
2023-03-20T09:10:55.172Z,992.6
2023-03-20T09:13:21.439Z,992.7
2023-03-20T09:15:47.478Z,992.6
2023-03-20T09:20:39.592Z,992.7
2023-03-20T09:23:05.696Z,992.7
2023-03-20T09:25:31.760Z,992.7
2023-03-20T09:27:57.860Z,992.7
2023-03-20T09:30:23.918Z,992.7
2023-03-20T09:32:50.028Z,992.7
2023-03-20T09:35:15.139Z,992.7
2023-03-20T09:37:41.211Z,992.6
2023-03-20T09:40:07.321Z,992.7
2023-03-20T09:42:33.410Z,992.6
2023-03-20T09:44:59.533Z,992.7
2023-03-20T09:47:25.615Z,992.6
2023-03-20T09:49:51.686Z,992.7
2023-03-20T09:52:17.796Z,992.7
2023-03-20T09:54:43.879Z,992.7
2023-03-20T09:57:10.025Z,992.6
2023-03-20T09:59:36.059Z,992.7
2023-03-20T10:02:02.172Z,992.7
2023-03-20T10:04:28.297Z,992.6
2023-03-20T10:06:53.401Z,992.6
2023-03-20T10:09:18.552Z,992.6
2023-03-20T10:11:44.614Z,992.7
2023-03-20T10:14:10.825Z,992.7
2023-03-20T10:16:36.788Z,992.6
2023-03-20T10:19:02.897Z,992.7
2023-03-20T10:21:28.980Z,992.7
2023-03-20T10:23:55.129Z,992.7
2023-03-20T10:26:21.172Z,992.7
2023-03-20T10:28:47.251Z,992.7
2023-03-20T10:31:13.358Z,992.7
2023-03-20T10:33:39.455Z,992.7
2023-03-20T10:36:05.559Z,992.7
2023-03-20T10:38:31.625Z,992.7
2023-03-20T10:40:56.892Z,992.8
2023-03-20T10:43:23.013Z,992.7
2023-03-20T10:45:49.008Z,992.8
2023-03-20T10:48:15.118Z,992.8
2023-03-20T10:50:41.140Z,992.8
2023-03-20T10:53:07.235Z,992.7
2023-03-20T10:55:33.342Z,992.8
2023-03-20T10:57:59.420Z,992.8
2023-03-20T11:00:25.579Z,992.8
2023-03-20T11:02:51.607Z,992.7
2023-03-20T11:05:17.721Z,992.6
2023-03-20T11:07:43.795Z,992.6
2023-03-20T11:10:09.917Z,992.6
2023-03-20T11:12:35.012Z,992.6
2023-03-20T11:15:01.099Z,992.5
2023-03-20T11:17:27.203Z,992.6
2023-03-20T11:19:53.319Z,992.6
2023-03-20T11:22:19.402Z,992.6
2023-03-20T11:24:45.525Z,992.6
2023-03-20T11:27:11.594Z,992.6
2023-03-20T11:29:37.690Z,992.6
2023-03-20T11:32:03.769Z,992.6
2023-03-20T11:34:29.956Z,992.6
2023-03-20T11:36:55.975Z,992.6
2023-03-20T11:39:22.080Z,992.6
2023-03-20T11:41:48.181Z,992.7
2023-03-20T11:46:39.400Z,992.6
2023-03-20T11:49:05.475Z,992.7
2023-03-20T11:51:31.640Z,992.7
2023-03-20T11:56:23.765Z,992.6
2023-03-20T11:58:49.872Z,992.6
2023-03-20T12:01:15.962Z,992.6
2023-03-20T12:03:42.049Z,992.5
2023-03-20T12:06:08.142Z,992.5
2023-03-20T12:08:34.228Z,992.6
2023-03-20T12:11:00.394Z,992.5
2023-03-20T12:13:26.446Z,992.5
2023-03-20T12:15:51.563Z,992.5
2023-03-20T12:18:17.651Z,992.5
2023-03-20T12:20:43.741Z,992.5
2023-03-20T12:23:09.837Z,992.5
2023-03-20T12:25:35.926Z,992.5
2023-03-20T12:28:02.013Z,992.5
2023-03-20T12:30:28.116Z,992.4
2023-03-20T12:32:54.219Z,992.4
2023-03-20T12:35:20.315Z,992.3
2023-03-20T12:37:46.420Z,992.4
2023-03-20T12:40:12.551Z,992.4
2023-03-20T12:42:38.609Z,992.3
2023-03-20T12:45:04.701Z,992.3
2023-03-20T12:47:29.812Z,992.3
2023-03-20T12:49:55.910Z,992.3
2023-03-20T12:52:21.986Z,992.2
2023-03-20T12:54:48.103Z,992.2
2023-03-20T12:57:14.193Z,992.1
2023-03-20T12:59:40.280Z,992.1
2023-03-20T13:02:06.396Z,992.1
2023-03-20T13:04:32.497Z,992.2
2023-03-20T13:06:58.576Z,992.1
2023-03-20T13:09:24.656Z,992.1
2023-03-20T13:11:50.772Z,992
2023-03-20T13:14:16.857Z,991.9
2023-03-20T13:16:42.941Z,991.9
2023-03-20T13:19:08.055Z,991.9
2023-03-20T13:21:34.151Z,991.9
2023-03-20T13:24:00.347Z,991.9
2023-03-20T13:26:26.366Z,991.8
2023-03-20T13:28:52.584Z,991.8
2023-03-20T13:31:18.607Z,991.9
2023-03-20T13:33:44.659Z,991.8
2023-03-20T13:36:10.740Z,991.9
2023-03-20T13:38:37.002Z,991.8
2023-03-20T13:41:03.026Z,991.8
2023-03-20T13:43:29.018Z,991.7
2023-03-20T13:45:55.093Z,991.7
2023-03-20T13:48:21.183Z,991.7
2023-03-20T13:50:47.273Z,991.7
2023-03-20T13:53:13.418Z,991.7
2023-03-20T13:55:39.468Z,991.7
2023-03-20T13:58:04.587Z,991.6
2023-03-20T14:00:30.669Z,991.6
2023-03-20T14:02:56.855Z,991.6
2023-03-20T14:05:22.871Z,991.5
2023-03-20T14:07:48.994Z,991.5
2023-03-20T14:10:15.069Z,991.4
2023-03-20T14:12:41.159Z,991.4
2023-03-20T14:15:07.252Z,991.4
2023-03-20T14:17:33.407Z,991.4
2023-03-20T14:19:59.418Z,991.4
2023-03-20T14:22:25.542Z,991.4
2023-03-20T14:24:51.614Z,991.4
2023-03-20T14:27:17.723Z,991.4
2023-03-20T14:29:42.836Z,991.4
2023-03-20T14:32:08.919Z,991.4
2023-03-20T14:34:35.011Z,991.5
2023-03-20T14:37:01.102Z,991.5
2023-03-20T14:39:27.264Z,991.4
2023-03-20T14:41:53.306Z,991.5
2023-03-20T14:44:19.390Z,991.4
2023-03-20T14:46:45.559Z,991.4
2023-03-20T14:49:11.602Z,991.4
2023-03-20T14:51:37.661Z,991.4
2023-03-20T14:54:03.767Z,991.4
2023-03-20T14:56:29.909Z,991.4
2023-03-20T14:58:56.020Z,991.4
2023-03-20T15:01:21.068Z,991.4
2023-03-20T15:03:47.168Z,991.4
2023-03-20T15:06:13.267Z,991.3
2023-03-20T15:08:39.347Z,991.3
2023-03-20T15:11:05.517Z,991.3
2023-03-20T15:13:31.574Z,991.3
2023-03-20T15:15:57.651Z,991.3
2023-03-20T15:18:23.751Z,991.3
2023-03-20T15:20:49.819Z,991.3
2023-03-20T15:23:15.921Z,991.2
2023-03-20T15:25:42.038Z,991.2
2023-03-20T15:28:08.150Z,991.2
2023-03-20T15:30:34.206Z,991.1
2023-03-20T15:35:26.400Z,991.1
2023-03-20T15:37:51.552Z,991.1
2023-03-20T15:40:17.594Z,991.2
2023-03-20T15:42:43.836Z,991.2
2023-03-20T15:45:09.886Z,991.1
2023-03-20T15:47:35.977Z,991.2
2023-03-20T15:50:01.965Z,991.2
2023-03-20T15:52:28.119Z,991.2
2023-03-20T15:54:54.186Z,991.1
2023-03-20T15:57:20.319Z,991.1
2023-03-20T15:59:46.403Z,991.2
2023-03-20T16:02:12.523Z,991.1
2023-03-20T16:04:38.701Z,991.1
2023-03-20T16:07:04.720Z,991.1
2023-03-20T16:09:29.738Z,991.1
2023-03-20T16:11:55.904Z,991.1
2023-03-20T16:14:21.985Z,991.1
2023-03-20T16:16:48.041Z,991.1
2023-03-20T16:19:14.236Z,991.1
2023-03-20T16:21:40.250Z,991.1
2023-03-20T16:24:06.357Z,991
2023-03-20T16:26:32.429Z,991.1
2023-03-20T16:28:58.521Z,991
2023-03-20T16:31:24.609Z,991
2023-03-20T16:33:50.695Z,991.1
2023-03-20T16:36:16.809Z,991
2023-03-20T16:38:42.902Z,991.1
2023-03-20T16:41:08.015Z,991
2023-03-20T16:43:34.304Z,991.1
2023-03-20T16:46:00.209Z,991
2023-03-20T16:48:26.300Z,991
2023-03-20T16:50:52.466Z,991.1
2023-03-20T16:53:18.477Z,991.1
2023-03-20T16:55:44.597Z,991
2023-03-20T16:58:10.672Z,991
2023-03-20T17:00:36.780Z,991.1
2023-03-20T17:03:02.874Z,991
2023-03-20T17:05:28.955Z,991.1
2023-03-20T17:07:55.066Z,991.1
2023-03-20T17:10:21.149Z,991.1
2023-03-20T17:12:46.345Z,991
2023-03-20T17:15:12.361Z,991.1
2023-03-20T17:17:38.458Z,991
2023-03-20T17:20:04.547Z,991
2023-03-20T17:22:30.665Z,991.1
2023-03-20T17:24:56.771Z,991.2
2023-03-20T17:27:22.971Z,991.2
2023-03-20T17:29:48.947Z,991.1
2023-03-20T17:32:15.032Z,991.2
2023-03-20T17:34:41.129Z,991.2
2023-03-20T17:37:07.406Z,991.2
2023-03-20T17:39:33.325Z,991.2
2023-03-20T17:41:59.434Z,991.1
2023-03-20T17:44:24.520Z,991.2
2023-03-20T17:46:50.627Z,991.2
2023-03-20T17:49:16.733Z,991.2
2023-03-20T17:51:42.810Z,991.2
2023-03-20T17:54:08.929Z,991.2
2023-03-20T17:56:35.027Z,991.2
2023-03-20T17:59:01.152Z,991.3
2023-03-20T18:01:27.198Z,991.2
2023-03-20T18:03:53.498Z,991.3
2023-03-20T18:06:19.553Z,991.3
2023-03-20T18:08:45.577Z,991.4
2023-03-20T18:11:11.681Z,991.4
2023-03-20T18:13:37.714Z,991.5
2023-03-20T18:16:02.790Z,991.4
2023-03-20T18:18:27.912Z,991.5
2023-03-20T18:20:54.003Z,991.5
2023-03-20T18:23:20.246Z,991.6
2023-03-20T18:25:46.351Z,991.6
2023-03-20T18:28:12.296Z,991.6
2023-03-20T18:30:38.391Z,991.6
2023-03-20T18:33:04.469Z,991.6
2023-03-20T18:35:30.668Z,991.6
2023-03-20T18:37:56.673Z,991.6
2023-03-20T18:40:22.778Z,991.6
2023-03-20T18:42:48.864Z,991.6
2023-03-20T18:45:14.998Z,991.6
2023-03-20T18:47:41.071Z,991.6
2023-03-20T18:50:06.190Z,991.6
2023-03-20T18:52:32.285Z,991.6
2023-03-20T18:54:58.349Z,991.6
2023-03-20T18:57:24.456Z,991.6
2023-03-20T18:59:50.554Z,991.6
2023-03-20T19:02:16.631Z,991.6
2023-03-20T19:04:42.737Z,991.6
2023-03-20T19:07:08.837Z,991.6
2023-03-20T19:09:34.944Z,991.6
2023-03-20T19:12:01.023Z,991.5
2023-03-20T19:14:27.122Z,991.6
2023-03-20T19:16:53.220Z,991.5
2023-03-20T19:19:19.309Z,991.5
2023-03-20T19:21:44.449Z,991.6
2023-03-20T19:24:10.564Z,991.6
2023-03-20T19:26:36.625Z,991.6
2023-03-20T19:29:02.728Z,991.6
2023-03-20T19:31:28.805Z,991.5
2023-03-20T19:33:54.975Z,991.6
2023-03-20T19:36:21.011Z,991.5
2023-03-20T19:38:47.102Z,991.6
2023-03-20T19:41:13.196Z,991.6
2023-03-20T19:43:39.306Z,991.6
2023-03-20T19:46:05.423Z,991.5
2023-03-20T19:48:31.478Z,991.5
2023-03-20T19:50:57.580Z,991.5
2023-03-20T19:53:22.673Z,991.5
2023-03-20T19:55:48.769Z,991.5
2023-03-20T19:58:14.881Z,991.5
2023-03-20T20:00:41.079Z,991.5
2023-03-20T20:03:07.115Z,991.5
2023-03-20T20:05:33.296Z,991.5
2023-03-20T20:07:59.252Z,991.5
2023-03-20T20:10:25.369Z,991.4
2023-03-20T20:12:51.446Z,991.4
2023-03-20T20:15:17.530Z,991.3
2023-03-20T20:17:43.653Z,991.3
2023-03-20T20:20:09.731Z,991.3
2023-03-20T20:22:35.835Z,991.4
2023-03-20T20:25:00.948Z,991.4
2023-03-20T20:27:27.034Z,991.4
2023-03-20T20:29:53.186Z,991.4
2023-03-20T20:32:19.220Z,991.3
2023-03-20T20:34:45.338Z,991.4
2023-03-20T20:37:11.424Z,991.4
2023-03-20T20:39:37.525Z,991.4
2023-03-20T20:42:03.616Z,991.4
2023-03-20T20:44:29.730Z,991.4
2023-03-20T20:46:55.813Z,991.4
2023-03-20T20:49:21.889Z,991.4
2023-03-20T20:51:47.988Z,991.4
2023-03-20T20:54:14.087Z,991.4
2023-03-20T20:56:39.210Z,991.4
2023-03-20T20:59:05.312Z,991.5
2023-03-20T21:01:31.473Z,991.5
2023-03-20T21:03:57.506Z,991.6
2023-03-20T21:06:23.571Z,991.5
2023-03-20T21:08:49.674Z,991.5
2023-03-20T21:11:15.767Z,991.5
2023-03-20T21:13:41.865Z,991.5
2023-03-20T21:16:07.979Z,991.6
2023-03-20T21:18:34.056Z,991.5
2023-03-20T21:21:00.166Z,991.6
2023-03-20T21:23:26.254Z,991.6
2023-03-20T21:25:52.349Z,991.5
2023-03-20T21:28:17.461Z,991.6
2023-03-20T21:30:43.555Z,991.6
2023-03-20T21:33:09.646Z,991.6
2023-03-20T21:35:35.738Z,991.5
2023-03-20T21:38:01.938Z,991.5
2023-03-20T21:40:27.926Z,991.5
2023-03-20T21:42:54.020Z,991.5
2023-03-20T21:45:20.130Z,991.4
2023-03-20T21:47:46.285Z,991.4
2023-03-20T21:50:12.320Z,991.4
2023-03-20T21:52:38.413Z,991.4
2023-03-20T21:55:04.517Z,991.4
2023-03-20T21:57:30.608Z,991.4
2023-03-20T21:59:55.737Z,991.4
2023-03-20T22:02:21.794Z,991.4
2023-03-20T22:04:47.906Z,991.4
2023-03-20T22:07:13.991Z,991.4
2023-03-20T22:09:40.079Z,991.4
2023-03-20T22:12:06.197Z,991.4
2023-03-20T22:14:32.287Z,991.4
2023-03-20T22:16:58.355Z,991.5
2023-03-20T22:19:24.470Z,991.5
2023-03-20T22:21:50.561Z,991.5
2023-03-20T22:24:16.670Z,991.6
2023-03-20T22:26:42.784Z,991.6
2023-03-20T22:29:08.864Z,991.6
2023-03-20T22:31:34.962Z,991.5
2023-03-20T22:34:00.067Z,991.6
2023-03-20T22:36:26.185Z,991.6
2023-03-20T22:38:52.272Z,991.6
2023-03-20T22:41:18.379Z,991.6
2023-03-20T22:43:44.435Z,991.7
2023-03-20T22:46:10.551Z,991.6
2023-03-20T22:48:36.642Z,991.5
2023-03-20T22:51:02.731Z,991.5
2023-03-20T22:53:28.830Z,991.5
2023-03-20T22:55:54.915Z,991.4
2023-03-20T22:58:21.028Z,991.4
2023-03-20T23:00:47.117Z,991.3
2023-03-20T23:03:13.206Z,991.3
2023-03-20T23:05:38.339Z,991.3
2023-03-20T23:08:04.421Z,991.2
2023-03-20T23:10:30.775Z,991.3
2023-03-20T23:12:56.620Z,991.3
2023-03-20T23:15:22.706Z,991.3
2023-03-20T23:17:48.813Z,991.3
2023-03-20T23:20:14.911Z,991.4
2023-03-20T23:22:40.991Z,991.3
2023-03-20T23:25:07.097Z,991.3
2023-03-20T23:27:33.180Z,991.3
2023-03-20T23:29:59.293Z,991.2
2023-03-20T23:32:25.384Z,991.3
2023-03-20T23:34:51.470Z,991.3
2023-03-20T23:37:17.586Z,991.3
2023-03-20T23:39:43.664Z,991.2
2023-03-20T23:42:09.769Z,991.2
2023-03-20T23:44:35.857Z,991.2
2023-03-20T23:47:01.041Z,991.2
2023-03-20T23:49:27.240Z,991.1
2023-03-20T23:51:53.352Z,991.1
2023-03-20T23:54:19.424Z,991.1
2023-03-20T23:56:45.508Z,991
2023-03-20T23:59:11.663Z,991
